Flight Track Log - Related Links

Times and Time Zones

All times are in EDT time to prevent confusion due to time zone crossing. See the FLG3435 flight status page for this flight to view local times or setup timezone preferences in your user account.

Time Position Orientation Groundspeed Altitude Reporting Facility
EDT Latitude Longitude Course Direction KTS MPH feet Rate Location/Type
Mon 11:18:54 PM 44.8833 -93.1833 284° West 161 185 1,600  Level Minneapolis TRACON
Mon 11:19:42 PM 44.8833 -93.1167 90° East 214 246 2,700 1,368 Climbing Minneapolis TRACON
Mon 11:20:48 PM 44.9167 -93.0167 65° Northeast 298 343 4,200 2,014 Climbing Minneapolis TRACON
Mon 11:22:08 PM 45.0086 -93.0128 North 281 323 7,600 2,383 Climbing Minneapolis Center
Mon 11:23:09 PM 45.0322 -93.1117 289° West 279 321 9,800 1,918 Climbing Minneapolis Center
Mon 11:24:00 PM 45.0043 -93.9499 284° West  Level Estimated
Mon 11:24:10 PM 45.0386 -93.2281 274° West 301 346 11,500  Level Minneapolis Center
Mon 11:25:11 PM 45.0442 -93.3594 273° West 339 390 13,000 1,918 Climbing Minneapolis Center
Mon 11:26:12 PM 45.0503 -93.4967 274° West 351 404 15,400 2,410 Climbing Minneapolis Center
Mon 11:27:13 PM 45.0569 -93.6600 273° West 350 403 17,900 1,918 Climbing Minneapolis Center
Mon 11:28:14 PM 45.0611 -93.7967 273° West 350 403 19,300 1,426 Climbing Minneapolis Center
Mon 11:29:15 PM 45.0678 -93.9394 274° West 361 415 20,800 1,377 Climbing Minneapolis Center
Mon 11:30:16 PM 45.0753 -94.0825 274° West 366 421 22,100 1,220 Climbing Minneapolis Center
Mon 11:31:18 PM 45.0806 -94.2306 273° West 374 430 23,300 1,268 Climbing Minneapolis Center
Mon 11:32:19 PM 45.0858 -94.3817 273° West 382 440 24,700 1,209 Climbing Minneapolis Center
Mon 11:33:32 PM 45.0992 -94.5633 276° West 386 444 26,000 1,075 Climbing Minneapolis Center
Mon 11:34:33 PM 45.1167 -94.7303 279° West 395 455 27,100 1,033 Climbing Minneapolis Center
Mon 11:35:34 PM 45.1322 -94.8869 278° West 401 461 28,100 885 Climbing Minneapolis Center
Mon 11:36:35 PM 45.1469 -95.0456 278° West 407 468 28,900 836 Climbing Minneapolis Center
Mon 11:37:36 PM 45.1631 -95.2056 278° West 411 473 29,800 836 Climbing Minneapolis Center
Mon 11:38:37 PM 45.1775 -95.3683 277° West 416 479 30,600 738 Climbing Minneapolis Center
Mon 11:39:38 PM 45.1933 -95.5325 278° West 421 484 31,300 1,033 Climbing Minneapolis Center
Mon 11:40:39 PM 45.2117 -95.7319 278° West 426 490 32,700 1,230 Climbing Minneapolis Center
Mon 11:41:40 PM 45.2267 -95.8936 278° West 419 482 33,800 1,140 Climbing Minneapolis Center
Mon 11:42:40 PM 45.2403 -96.0544 277° West 415 478 35,000 1,091 Climbing Minneapolis Center
Mon 11:43:41 PM 45.2542 -96.2125 277° West 408 470 36,000 492 Climbing Minneapolis Center
Mon 11:44:42 PM 45.2669 -96.3728 277° West 410 472 36,000  Level Minneapolis Center
Mon 11:45:43 PM 45.2817 -96.5392 277° West 423 487 36,000  Level Minneapolis Center
Mon 11:46:44 PM 45.2958 -96.7097 277° West 436 502 36,000  Level Minneapolis Center
Mon 11:47:45 PM 45.3097 -96.8808 277° West 438 504 36,000  Level Minneapolis Center
Mon 11:48:46 PM 45.3228 -97.0483 276° West 433 498 36,000  Level Minneapolis Center
Mon 11:49:46 PM 45.3369 -97.2172 277° West 432 497 36,000  Level Minneapolis Center
Mon 11:50:47 PM 45.3486 -97.3856 276° West 431 496 36,000  Level Minneapolis Center
Mon 11:51:48 PM 45.3600 -97.5517 276° West 427 491 36,000  Level Minneapolis Center
Mon 11:52:49 PM 45.3761 -97.7522 277° West 427 491 36,000  Level Minneapolis Center
Mon 11:53:50 PM 45.3883 -97.9192 276° West 427 491 36,000  Level Minneapolis Center
Mon 11:54:50 PM 45.4003 -98.0747 276° West 425 489 36,000  Level Minneapolis Center
Mon 11:55:51 PM 45.4106 -98.2406 275° West 423 487 36,000  Level Minneapolis Center
Mon 11:56:52 PM 45.4253 -98.4064 277° West 424 488 36,000  Level Minneapolis Center
Mon 11:57:53 PM 45.4519 -98.5717 283° West 428 493 36,000  Level Minneapolis Center
Mon 11:58:53 PM 45.4792 -98.7375 283° West 430 495 36,000  Level Minneapolis Center
Mon 11:59:54 PM 45.5056 -98.9036 283° West 432 497 36,000  Level Minneapolis Center
Tue 12:00:55 AM 45.5322 -99.0697 283° West 432 497 36,000  Level Minneapolis Center
Tue 12:01:56 AM 45.5581 -99.2389 282° West 435 501 36,000  Level Minneapolis Center
Tue 12:02:56 AM 45.5889 -99.4403 282° West 436 502 36,000  Level Minneapolis Center
Tue 12:03:57 AM 45.6142 -99.6075 282° West 435 501 36,000  Level Minneapolis Center
Tue 12:04:58 AM 45.6392 -99.7717 282° West 431 496 36,000  Level Minneapolis Center
Tue 12:05:58 AM 45.6622 -99.9347 281° West 425 489 36,000  Level Minneapolis Center
Tue 12:06:59 AM 45.6853 -100.0942 282° West 417 480 36,000  Level Minneapolis Center
Tue 12:08:00 AM 45.7089 -100.2536 282° West 414 476 36,000  Level Minneapolis Center
Tue 12:09:00 AM 45.7322 -100.4167 282° West 419 482 36,000  Level Minneapolis Center
Tue 12:10:01 AM 45.7547 -100.5797 281° West 420 483 36,000  Level Minneapolis Center
Tue 12:11:02 AM 45.7781 -100.7442 282° West 422 486 36,000  Level Minneapolis Center
Tue 12:12:02 AM 45.8014 -100.9094 282° West 424 488 36,000  Level Minneapolis Center
Tue 12:13:03 AM 45.8236 -101.0744 281° West 424 488 36,000  Level Minneapolis Center
Tue 12:14:04 AM 45.8478 -101.2417 282° West 427 491 36,000  Level Minneapolis Center
Tue 12:15:04 AM 45.8692 -101.4069 281° West 425 489 36,000  Level Minneapolis Center
Tue 12:16:05 AM 45.8914 -101.5706 281° West 421 484 36,000  Level Minneapolis Center
Tue 12:17:05 AM 45.9125 -101.7369 280° West 422 486 36,000  Level Minneapolis Center
Tue 12:18:09 AM 45.9397 -101.9333 281° West 421 484 36,000  Level Minneapolis Center
Tue 12:19:09 AM 45.9614 -102.0989 281° West 422 486 36,000  Level Minneapolis Center
Tue 12:20:10 AM 45.9825 -102.2631 281° West 420 483 36,000  Level Minneapolis Center
Tue 12:21:10 AM 46.0028 -102.4281 280° West 421 484 36,000  Level Minneapolis Center
Tue 12:22:11 AM 46.0231 -102.5928 280° West 420 483 36,000  Level Minneapolis Center
Tue 12:23:12 AM 46.0436 -102.7594 280° West 419 482 36,000  Level Minneapolis Center
Tue 12:24:12 AM 46.0639 -102.9244 280° West 419 482 36,000  Level Minneapolis Center
Tue 12:25:13 AM 46.0833 -103.0894 280° West 418 481 36,000  Level Minneapolis Center
Tue 12:26:13 AM 46.1025 -103.2544 280° West 419 482 36,000  Level Minneapolis Center
Tue 12:27:14 AM 46.1214 -103.4197 279° West 418 481 36,000  Level Minneapolis Center
Tue 12:28:14 AM 46.1400 -103.5836 279° West 416 479 36,000  Level Minneapolis Center
Tue 12:29:15 AM 46.1586 -103.7483 279° West 417 480 36,000  Level Minneapolis Center
Tue 12:30:15 AM 46.1769 -103.9114 279° West 415 478 36,000  Level Minneapolis Center
Tue 12:31:23 AM 46.1964 -104.1061 278° West 414 476 36,000  Level Salt Lake Center
Tue 12:32:24 AM 46.2131 -104.2692 278° West 412 474 36,000  Level Salt Lake Center
Tue 12:33:25 AM 46.2308 -104.4356 279° West 416 479 36,000  Level Salt Lake Center
Tue 12:34:26 AM 46.2464 -104.5839 279° West 415 478 36,000  Level Salt Lake Center
Tue 12:35:27 AM 46.2633 -104.7492 278° West 416 479 36,000  Level Salt Lake Center
Tue 12:36:28 AM 46.2828 -104.9444 278° West 413 475 36,000  Level Salt Lake Center
Tue 12:37:30 AM 46.2994 -105.1086 278° West 414 476 36,000  Level Salt Lake Center
Tue 12:38:31 AM 46.3161 -105.2722 278° West 413 475 36,000  Level Salt Lake Center
Tue 12:39:32 AM 46.3308 -105.4347 278° West 412 474 36,000  Level Salt Lake Center
Tue 12:40:33 AM 46.3481 -105.5969 279° West 411 473 36,000  Level Salt Lake Center
Tue 12:41:34 AM 46.3639 -105.7603 278° West 411 473 36,000  Level Salt Lake Center
Tue 12:42:35 AM 46.3803 -105.9222 278° West 410 472 36,000  Level Salt Lake Center
Tue 12:43:36 AM 46.3928 -106.0833 276° West 407 468 36,000  Level Salt Lake Center
Tue 12:44:37 AM 46.4036 -106.2453 276° West 407 468 36,000  Level Salt Lake Center
Tue 12:45:38 AM 46.4128 -106.4028 275° West 400 460 36,000  Level Salt Lake Center
Tue 12:46:40 AM 46.4239 -106.5936 275° West 398 458 36,000  Level Salt Lake Center
Tue 12:47:41 AM 46.4322 -106.7511 274° West 396 456 36,000  Level Salt Lake Center
Tue 12:48:42 AM 46.4417 -106.9086 275° West 394 453 36,000  Level Salt Lake Center
Tue 12:49:43 AM 46.4503 -107.0669 275° West 396 456 36,000  Level Salt Lake Center
Tue 12:50:44 AM 46.4575 -107.2244 274° West 395 455 36,000  Level Salt Lake Center
Tue 12:51:45 AM 46.4669 -107.3881 275° West 403 464 36,000  Level Salt Lake Center
Tue 12:52:46 AM 46.4742 -107.5481 274° West 401 461 36,000  Level Salt Lake Center
Tue 12:53:47 AM 46.4817 -107.7089 274° West 401 461 36,000  Level Salt Lake Center
Tue 12:54:48 AM 46.4897 -107.8711 274° West 405 466 36,000  Level Salt Lake Center
Tue 12:55:49 AM 46.4975 -108.0319 274° West 403 464 36,000  Level Salt Lake Center
Tue 12:56:50 AM 46.5042 -108.1931 273° West 402 463 36,000  Level Salt Lake Center
Tue 12:57:51 AM 46.5131 -108.3894 274° West 407 468 36,000  Level Salt Lake Center
Tue 12:58:52 AM 46.5203 -108.5522 274° West 407 468 36,000  Level Salt Lake Center
Tue 12:59:53 AM 46.5269 -108.7144 273° West 405 466 36,000  Level Salt Lake Center
Tue 01:00:54 AM 46.5331 -108.8742 273° West 400 460 36,000  Level Salt Lake Center
Tue 01:01:55 AM 46.5386 -109.0319 273° West 395 455 36,000  Level Salt Lake Center
Tue 01:02:56 AM 46.5439 -109.1892 273° West 393 452 36,000  Level Salt Lake Center
Tue 01:03:56 AM 46.5497 -109.3456 273° West 391 450 36,000  Level Salt Lake Center
Tue 01:04:57 AM 46.5539 -109.5058 272° West 398 458 36,000  Level Salt Lake Center
Tue 01:05:58 AM 46.5592 -109.6686 273° West 403 464 36,000  Level Salt Lake Center
Tue 01:06:59 AM 46.5644 -109.8303 273° West 402 463 36,000 344 Level Salt Lake Center
Tue 01:08:00 AM 46.5686 -109.9928 272° West 404 465 36,700 984 Climbing Salt Lake Center
Tue 01:09:01 AM 46.5736 -110.1783 272° West 388 447 38,000 639 Climbing Salt Lake Center
Tue 01:10:02 AM 46.5781 -110.3317 272° West 383 441 38,000  Level Salt Lake Center
Tue 01:11:03 AM 46.5819 -110.4897 272° West 390 449 38,000  Level Salt Lake Center
Tue 01:12:04 AM 46.5839 -110.6250 271° West 392 451 38,000  Level Salt Lake Center
Tue 01:13:05 AM 46.5878 -110.7800 272° West 385 443 38,000  Level Salt Lake Center
Tue 01:14:05 AM 46.5917 -110.9328 272° West 380 437 38,000  Level Salt Lake Center
Tue 01:15:06 AM 46.5947 -111.1131 271° West 374 430 38,000  Level Salt Lake Center
Tue 01:16:07 AM 46.5967 -111.2664 271° West 377 434 38,000  Level Salt Lake Center
Tue 01:17:08 AM 46.6003 -111.4264 272° West 390 449 38,000  Level Salt Lake Center
Tue 01:18:09 AM 46.6022 -111.5875 271° West 397 457 38,000  Level Salt Lake Center
Tue 01:19:10 AM 46.6050 -111.7472 272° West 396 456 38,000  Level Salt Lake Center
Tue 01:20:10 AM 46.6069 -111.9047 271° West 392 451 38,000  Level Salt Lake Center
Tue 01:21:11 AM 46.6061 -112.0597 270° West 386 444 38,000  Level Salt Lake Center
Tue 01:22:12 AM 46.6022 -112.2156 268° West 386 444 38,000  Level Salt Lake Center
Tue 01:23:13 AM 46.5994 -112.3719 269° West 386 444 38,000  Level Salt Lake Center
Tue 01:24:13 AM 46.5958 -112.5264 268° West 385 443 38,000  Level Salt Lake Center
Tue 01:25:14 AM 46.5925 -112.6825 268° West 387 445 38,000  Level Salt Lake Center
Tue 01:26:15 AM 46.5889 -112.8392 268° West 389 448 38,000  Level Salt Lake Center
Tue 01:27:16 AM 46.5853 -112.9989 268° West 395 455 38,000  Level Salt Lake Center
Tue 01:28:16 AM 46.5806 -113.1575 268° West 395 455 38,000  Level Salt Lake Center
Tue 01:29:17 AM 46.5758 -113.3333 268° West 394 453 38,000  Level Salt Lake Center
Tue 01:30:18 AM 46.5717 -113.4928 268° West 395 455 38,000  Level Salt Lake Center
Tue 01:31:18 AM 46.5667 -113.6500 267° West 391 450 38,000  Level Salt Lake Center
Tue 01:32:19 AM 46.5608 -113.8103 267° West 393 452 38,000  Level Salt Lake Center
Tue 01:33:20 AM 46.5556 -113.9686 267° West 394 453 38,000  Level Salt Lake Center
Tue 01:34:20 AM 46.5497 -114.1283 267° West 395 455 38,000  Level Salt Lake Center
Tue 01:35:21 AM 46.5439 -114.2886 267° West 397 457 38,000  Level Salt Lake Center
Tue 01:36:22 AM 46.5386 -114.4478 267° West 396 456 38,000  Level Salt Lake Center
Tue 01:37:22 AM 46.5317 -114.6069 266° West 395 455 38,000  Level Salt Lake Center
Tue 01:38:23 AM 46.5258 -114.7672 267° West 398 458 38,000  Level Salt Lake Center
Tue 01:39:23 AM 46.5189 -114.9278 266° West 399 459 38,000  Level Salt Lake Center
Tue 01:40:24 AM 46.5119 -115.0881 266° West 399 459 38,000  Level Salt Lake Center
Tue 01:41:25 AM 46.5044 -115.2478 266° West 399 459 38,000 -149 Level Salt Lake Center
Tue 01:42:25 AM 46.4961 -115.4108 266° West 401 461 37,700 -645 Descending Salt Lake Center
Tue 01:43:26 AM 46.4872 -115.5739 266° West 404 465 36,700 -1,140 Descending Salt Lake Center
Tue 01:44:26 AM 46.4792 -115.7411 266° West 408 470 35,400 -1,289 Descending Salt Lake Center
Tue 01:45:27 AM 46.4725 -115.9033 267° West 409 471 34,100 -1,377 Descending Salt Lake Center
Tue 01:46:28 AM 46.4633 -116.0778 266° West 419 482 32,600 -1,686 Descending Salt Lake Center
Tue 01:47:28 AM 46.4531 -116.2583 265° West 432 497 30,700 -1,785 Descending Salt Lake Center
Tue 01:48:29 AM 46.4442 -116.4342 266° West 438 504 29,000 -1,835 Descending Salt Lake Center
Tue 01:49:29 AM 46.4319 -116.6367 265° West 433 498 27,000 -1,835 Descending Salt Lake Center
Tue 01:50:30 AM 46.4236 -116.7986 266° West 423 487 25,300 -1,686 Descending Salt Lake Center
Tue 01:51:30 AM 46.4156 -116.9500 266° West 398 458 23,600 -1,721 Descending Salt Lake Center
Tue 01:52:32 AM 46.4056 -117.1031 265° West 386 444 21,800 -1,736 Descending Salt Lake Center
Tue 01:53:31 AM 46.3961 -117.2539 265° West 379 436 20,100 -1,846 Descending Salt Lake Center
Tue 01:54:55 AM 46.3836 -117.4469 265° West 349 402 17,400 -1,958 Descending Seattle Center
Tue 01:55:55 AM 46.3753 -117.5781 265° West 334 384 15,400 -1,983 Descending Seattle Center
Tue 01:56:56 AM 46.3675 -117.7047 265° West 321 369 13,400 -1,835 Descending Seattle Center
Tue 01:57:56 AM 46.3586 -117.8233 264° West 298 343 11,700 -1,650 Descending Seattle Center
Tue 01:58:56 AM 46.3497 -117.9367 264° West 282 325 10,100 -1,736 Descending Seattle Center
Tue 01:59:57 AM 46.3414 -118.0475 264° West 280 322 8,200 -1,537 Descending Seattle Center
Tue 02:00:57 AM 46.3344 -118.1586 265° West 279 321 7,000 -834 Descending Seattle Center
Tue 02:02:00 AM 46.3114 -118.3181 266° West  Level FlightAware Approximate
Tue 02:04:59 AM 46.3031 -118.5892 270° West 263 303 4,000  Level Seattle Center
Tue 02:05:59 AM 46.2975 -118.6772 265° West 228 262 4,000  Level Seattle Center
Tue 02:07:00 AM 46.2953 -118.7608 268° West 211 243 4,000 -298 Level Seattle Center
Tue 02:08:00 AM 46.3056 -118.8433 280° West 207 238 3,400 -600 Descending Seattle Center
Tue 02:09:00 AM 46.2500 -119.1167 270° West  Level FlightAware Approximate
Tue 02:09:00 AM 46.3194 -118.9067 288° West 177 204 2,800  Level Seattle Center
Tue 02:10:00 AM 46.2647 -119.1190 270° West  Level Estimated
Tue 02:10:01 AM 46.3306 -118.9714 284° West 167 192 2,400  Level Seattle Center
Tue 02:11:01 AM 46.3219 -119.0303 258° West 147 169 1,900 -645 Descending Seattle Center
Tue 02:12:02 AM 46.2942 -119.0772 229° Southwest 135 155 1,100 -744 Descending Seattle Center
Tue 02:13:02 AM 46.2675 -119.1161 225° Southwest 135 155 400 -700 Descending Seattle Center

Login

Don't have an account? Register now (free) for customized features, flight alerts, and more!